CTN3W LYBE-LDOS
Flight info
| Callsign | CTN3W |
|---|---|
| Flight time | 0h 25m |
| Altitude | 14000 |
| Route | TUVAR4C/12L TUVAR DCT ADULA |
| Aircraft | A320/M-SDE2E3FGHIRWXY/LB1 |
Departure
| Time | 2026-05-04 14:16 |
|---|---|
| Airport | Belgrade Nikola Tesla Airport (LYBE) |
Arrival
| Time | 2026-05-04 14:41 |
|---|---|
| Airport | Osijek Airport (LDOS) |
| Time | Latitude | Longitude | Altitude | Speed | Heading |
|---|---|---|---|---|---|
| 2026-05-04 14:00 | 44.81896 | 20.29238 | 320 ft | 0 kts | 302° |
| 2026-05-04 14:07 | 44.81887 | 20.29257 | 320 ft | 4 kts | 302° |
| 2026-05-04 14:08 | 44.81871 | 20.29294 | 320 ft | 5 kts | 315° |
| 2026-05-04 14:08 | 44.81848 | 20.29306 | 320 ft | 5 kts | 30° |
| 2026-05-04 14:08 | 44.81849 | 20.29308 | 320 ft | 0 kts | 33° |
| 2026-05-04 14:11 | 44.81851 | 20.29310 | 320 ft | 3 kts | 32° |
| 2026-05-04 14:11 | 44.81971 | 20.29413 | 321 ft | 0 kts | 32° |
| 2026-05-04 14:11 | 44.82013 | 20.29450 | 321 ft | 13 kts | 32° |
| 2026-05-04 14:12 | 44.82086 | 20.29513 | 322 ft | 10 kts | 32° |
| 2026-05-04 14:12 | 44.82111 | 20.29534 | 321 ft | 2 kts | 28° |
| 2026-05-04 14:12 | 44.82166 | 20.29478 | 323 ft | 11 kts | 301° |
| 2026-05-04 14:13 | 44.82218 | 20.29359 | 321 ft | 18 kts | 303° |
| 2026-05-04 14:13 | 44.82295 | 20.29189 | 321 ft | 23 kts | 303° |
| 2026-05-04 14:13 | 44.82381 | 20.28989 | 320 ft | 24 kts | 301° |
| 2026-05-04 14:13 | 44.82506 | 20.28862 | 321 ft | 23 kts | 11° |
| 2026-05-04 14:14 | 44.82608 | 20.29017 | 320 ft | 23 kts | 74° |
| 2026-05-04 14:14 | 44.82611 | 20.29178 | 321 ft | 0 kts | 123° |
| 2026-05-04 14:15 | 44.82608 | 20.29185 | 321 ft | 7 kts | 123° |
| 2026-05-04 14:15 | 44.82078 | 20.30395 | 320 ft | 130 kts | 120° |
| 2026-05-04 14:16 | 44.81043 | 20.32698 | 1198 ft | 137 kts | 127° |
| 2026-05-04 14:16 | 44.80351 | 20.33515 | 1838 ft | 128 kts | 154° |
| 2026-05-04 14:17 | 44.78387 | 20.34001 | 2757 ft | 161 kts | 172° |
| 2026-05-04 14:17 | 44.77219 | 20.34136 | 3199 ft | 181 kts | 187° |
| 2026-05-04 14:17 | 44.75394 | 20.31413 | 4254 ft | 229 kts | 259° |
| 2026-05-04 14:18 | 44.75565 | 20.29088 | 4889 ft | 250 kts | 290° |
| 2026-05-04 14:18 | 44.77299 | 20.24529 | 6034 ft | 281 kts | 298° |
| 2026-05-04 14:19 | 44.79110 | 20.19613 | 8061 ft | 286 kts | 296° |
| 2026-05-04 14:19 | 44.79955 | 20.17054 | 9043 ft | 290 kts | 296° |
| 2026-05-04 14:19 | 44.80786 | 20.14448 | 10054 ft | 294 kts | 296° |
| 2026-05-04 14:19 | 44.81639 | 20.11750 | 10647 ft | 312 kts | 296° |
| 2026-05-04 14:20 | 44.82542 | 20.08890 | 11013 ft | 335 kts | 296° |
| 2026-05-04 14:20 | 44.83511 | 20.05822 | 11602 ft | 347 kts | 296° |
| 2026-05-04 14:20 | 44.84498 | 20.02689 | 12490 ft | 350 kts | 296° |
| 2026-05-04 14:21 | 44.86501 | 19.96327 | 13878 ft | 359 kts | 296° |
| 2026-05-04 14:21 | 44.87505 | 19.93132 | 14045 ft | 360 kts | 296° |
| 2026-05-04 14:21 | 44.88531 | 19.89867 | 14093 ft | 360 kts | 296° |
| 2026-05-04 14:21 | 44.89529 | 19.86685 | 14093 ft | 360 kts | 296° |
| 2026-05-04 14:22 | 44.90541 | 19.83457 | 14097 ft | 360 kts | 296° |
| 2026-05-04 14:22 | 44.91554 | 19.80225 | 14089 ft | 360 kts | 296° |
| 2026-05-04 14:22 | 44.92565 | 19.76991 | 14095 ft | 359 kts | 295° |
| 2026-05-04 14:22 | 44.93574 | 19.73764 | 14087 ft | 359 kts | 295° |
| 2026-05-04 14:23 | 44.95594 | 19.67285 | 14085 ft | 360 kts | 295° |
| 2026-05-04 14:23 | 44.96587 | 19.64095 | 14088 ft | 359 kts | 295° |
| 2026-05-04 14:23 | 44.97595 | 19.60854 | 14086 ft | 359 kts | 295° |
| 2026-05-04 14:24 | 44.98598 | 19.57622 | 14085 ft | 359 kts | 295° |
| 2026-05-04 14:24 | 44.99603 | 19.54382 | 14086 ft | 360 kts | 295° |
| 2026-05-04 14:24 | 45.00595 | 19.51176 | 14080 ft | 359 kts | 295° |
| 2026-05-04 14:24 | 45.01596 | 19.47936 | 14085 ft | 360 kts | 295° |
| 2026-05-04 14:25 | 45.02594 | 19.44707 | 14084 ft | 359 kts | 295° |
| 2026-05-04 14:25 | 45.04601 | 19.38205 | 14084 ft | 360 kts | 295° |
| 2026-05-04 14:25 | 45.05599 | 19.34962 | 14077 ft | 359 kts | 295° |
| 2026-05-04 14:26 | 45.06598 | 19.31717 | 14084 ft | 360 kts | 295° |
| 2026-05-04 14:26 | 45.07583 | 19.28508 | 14079 ft | 359 kts | 295° |
| 2026-05-04 14:26 | 45.08578 | 19.25260 | 14085 ft | 359 kts | 295° |
| 2026-05-04 14:26 | 45.09573 | 19.22007 | 14078 ft | 360 kts | 295° |
| 2026-05-04 14:27 | 45.10566 | 19.18759 | 14074 ft | 360 kts | 295° |
| 2026-05-04 14:27 | 45.11559 | 19.15504 | 14078 ft | 360 kts | 295° |
| 2026-05-04 14:27 | 45.12551 | 19.12255 | 14083 ft | 360 kts | 295° |
| 2026-05-04 14:27 | 45.13544 | 19.08998 | 14075 ft | 360 kts | 295° |
| 2026-05-04 14:28 | 45.14533 | 19.05747 | 13931 ft | 357 kts | 295° |
| 2026-05-04 14:28 | 45.15514 | 19.02523 | 13525 ft | 356 kts | 294° |
| 2026-05-04 14:28 | 45.16490 | 18.99311 | 12988 ft | 354 kts | 294° |
| 2026-05-04 14:28 | 45.17458 | 18.96116 | 12471 ft | 352 kts | 294° |
| 2026-05-04 14:29 | 45.19366 | 18.89812 | 11445 ft | 347 kts | 294° |
| 2026-05-04 14:29 | 45.21255 | 18.83549 | 10477 ft | 343 kts | 294° |
| 2026-05-04 14:30 | 45.22171 | 18.80501 | 10330 ft | 329 kts | 294° |
| 2026-05-04 14:30 | 45.23051 | 18.77573 | 10212 ft | 316 kts | 294° |
| 2026-05-04 14:30 | 45.24656 | 18.72229 | 9919 ft | 295 kts | 294° |
| 2026-05-04 14:31 | 45.25465 | 18.69536 | 9333 ft | 299 kts | 294° |
| 2026-05-04 14:31 | 45.27467 | 18.64254 | 7954 ft | 312 kts | 315° |
| 2026-05-04 14:32 | 45.31206 | 18.60851 | 6342 ft | 330 kts | 331° |
| 2026-05-04 14:32 | 45.33240 | 18.59243 | 5402 ft | 339 kts | 330° |
| 2026-05-04 14:32 | 45.35336 | 18.57579 | 4404 ft | 350 kts | 330° |
| 2026-05-04 14:32 | 45.37444 | 18.55891 | 3718 ft | 353 kts | 330° |
| 2026-05-04 14:33 | 45.39554 | 18.54195 | 3379 ft | 342 kts | 330° |
| 2026-05-04 14:33 | 45.41591 | 18.52561 | 3208 ft | 327 kts | 331° |
| 2026-05-04 14:33 | 45.43632 | 18.51573 | 3229 ft | 287 kts | 353° |
| 2026-05-04 14:33 | 45.45370 | 18.51854 | 3179 ft | 224 kts | 21° |
| 2026-05-04 14:34 | 45.46683 | 18.52606 | 3175 ft | 184 kts | 24° |
| 2026-05-04 14:34 | 45.47774 | 18.53231 | 3165 ft | 152 kts | 24° |
| 2026-05-04 14:34 | 45.48707 | 18.53757 | 3187 ft | 146 kts | 23° |
| 2026-05-04 14:34 | 45.49678 | 18.54296 | 3179 ft | 150 kts | 23° |
| 2026-05-04 14:35 | 45.50644 | 18.54819 | 3160 ft | 145 kts | 22° |
| 2026-05-04 14:35 | 45.51579 | 18.55329 | 3181 ft | 150 kts | 24° |
| 2026-05-04 14:35 | 45.52321 | 18.56279 | 3194 ft | 146 kts | 68° |
| 2026-05-04 14:35 | 45.52412 | 18.57631 | 3181 ft | 135 kts | 109° |
| 2026-05-04 14:36 | 45.52086 | 18.58885 | 3176 ft | 133 kts | 111° |
| 2026-05-04 14:36 | 45.51819 | 18.60161 | 3176 ft | 133 kts | 109° |
| 2026-05-04 14:36 | 45.51545 | 18.61434 | 3172 ft | 134 kts | 111° |
| 2026-05-04 14:36 | 45.51196 | 18.62697 | 3210 ft | 138 kts | 117° |
| 2026-05-04 14:37 | 45.50807 | 18.63932 | 3112 ft | 133 kts | 116° |
| 2026-05-04 14:37 | 45.50460 | 18.65136 | 2856 ft | 134 kts | 115° |
| 2026-05-04 14:37 | 45.50098 | 18.66479 | 2567 ft | 164 kts | 113° |
| 2026-05-04 14:37 | 45.49671 | 18.68090 | 2160 ft | 173 kts | 114° |
| 2026-05-04 14:38 | 45.49276 | 18.69608 | 1837 ft | 155 kts | 113° |
| 2026-05-04 14:38 | 45.48915 | 18.70977 | 1585 ft | 139 kts | 114° |
| 2026-05-04 14:38 | 45.48589 | 18.72201 | 1418 ft | 132 kts | 114° |
| 2026-05-04 14:38 | 45.48258 | 18.73458 | 1241 ft | 134 kts | 115° |
| 2026-05-04 14:39 | 45.47935 | 18.74681 | 1056 ft | 131 kts | 115° |
| 2026-05-04 14:39 | 45.47611 | 18.75913 | 885 ft | 135 kts | 113° |
| 2026-05-04 14:39 | 45.47278 | 18.77177 | 692 ft | 137 kts | 115° |
| 2026-05-04 14:40 | 45.46648 | 18.79622 | 331 ft | 132 kts | 114° |
| 2026-05-04 14:40 | 45.46306 | 18.80801 | 300 ft | 124 kts | 112° |
| 2026-05-04 14:40 | 45.46057 | 18.81814 | 297 ft | 99 kts | 111° |
| 2026-05-04 14:40 | 45.45838 | 18.82663 | 302 ft | 84 kts | 100° |
| 2026-05-04 14:41 | 45.45851 | 18.83444 | 291 ft | 76 kts | 86° |
| 2026-05-04 14:41 | 45.45921 | 18.83817 | 293 ft | 0 kts | 12° |
| 2026-05-04 14:41 | 45.45941 | 18.83660 | 295 ft | 20 kts | 262° |
| 2026-05-04 14:42 | 45.45886 | 18.83336 | 293 ft | 14 kts | 269° |
| 2026-05-04 14:42 | 45.45882 | 18.83215 | 296 ft | 10 kts | 264° |
| 2026-05-04 14:42 | 45.45870 | 18.83065 | 297 ft | 31 kts | 263° |
| 2026-05-04 14:43 | 45.45849 | 18.82569 | 300 ft | 69 kts | 282° |
| 2026-05-04 14:43 | 45.46019 | 18.81908 | 299 ft | 68 kts | 290° |
| 2026-05-04 14:43 | 45.46179 | 18.81305 | 301 ft | 62 kts | 288° |
| 2026-05-04 14:43 | 45.46326 | 18.80825 | 302 ft | 41 kts | 314° |
| 2026-05-04 14:44 | 45.46524 | 18.80830 | 301 ft | 20 kts | 9° |
| 2026-05-04 14:44 | 45.46537 | 18.80833 | 299 ft | 0 kts | 9° |